メインページ
METAR-TAF:

METAR-TAF

空港 :

ボンリキ国際空港

タラワ, キリバス

緯度: 01-21N, 経度: 172-55E, 海抜: 2m

現時点の気象観測

当レポートは49分前の04:00(UTC)に作成
東/北東の風 6kt
気温 31°C
湿度 66%
気圧 1007 hPa
視程10km以上
高度2000ftの雲はほとんどない
高度30000ftの雲は散在している

METAR: NGTA 200400Z 06006KT 9999 FEW020 SCT300 31/24 Q1007

時間: 18:49 (04:49 UTC)

予報

当レポートは5時間34分前の23:15(UTC)に作成
予報は20日の 00時(UTC)から 20日の 24時(UTC)まで有効
の風 8kt
視程10km以上
高度1800ftの雲は散在している
高度10000ftの雲は散在している

TAF: NGTA 192315Z 2000/2024 09008KT 9999 SCT018 SCT100

4,000以上の空港の気象観測と天気予報(METAR報とTAF報)

利用可能な観測所は地図上に黄色い丸と赤い丸で示す。

丸の上にカーソルを重ねると観測所名を参照できる。

次にクリックすると気象観測と天気予報を参照できる。

マップの切り替え:黒色「×」印の緑ボタンをクリックして拡大、「-」印の緑ボタンをクリックして縮小、緑色の三角印をクリックして隣りの地図に切り替え


METAR-TAF: